Beltdiep — PBYF — position and weather

sailwx.info

Track history (hours):
 
Tides and Currents Weather Stations Pressure Air Temp Water Temp Dewpoint Dewpoint Depression Visibility Wind Speed Wind Dir Waves Ship Positions

Beltdiep

Last reported at 2014-Oct-21 21:34 UTC. Time now 2014-Oct-22 12:24 UTC.
Position N 40°59' E 028°60'.

Length 107 m; draft 3.2 m.

Type: Ship. MMSI: 246671000.

Date/timePositionNaut miles runAvg speedWind from/ knotsBaromVisibWave heightAir tempDewpointWater temp
2014-Oct-21 21:34N 40°59' E 028°60'7 6.4
2014-Oct-21 20:31N 40°53' E 028°56'6 6.3
2014-Oct-21 19:33N 40°47' E 028°52'2 1.9
2014-Oct-21 18:34N 40°46' E 028°53'1 0.8
2014-Oct-21 17:33N 40°45' E 028°52'1 0.6
2014-Oct-21 16:33N 40°45' E 028°52'0 0.4
2014-Oct-21 15:33N 40°45' E 028°52'1 0.9
2014-Oct-21 14:33N 40°44' E 028°51'0 0.4
2014-Oct-21 13:33N 40°44' E 028°51'7 7.5
2014-Oct-21 12:34N 40°37' E 028°47'17 8.6
2014-Oct-21 10:33N 40°25' E 029°04'1 0.5
2014-Oct-21 09:19N 40°25' E 029°05'0 0.0
2014-Oct-21 08:13N 40°25' E 029°05'0 0.0
2014-Oct-21 07:18N 40°25' E 029°05'0 0.0
2014-Oct-21 06:30N 40°25' E 029°05'0 0.0
2014-Oct-21 04:29N 40°25' E 029°05'0 0.0
2014-Oct-21 03:29N 40°25' E 029°05'0 0.0
2014-Oct-21 02:32N 40°25' E 029°05'0 0.0
2014-Oct-21 01:14N 40°25' E 029°05'0 0.0
2014-Oct-21 00:26N 40°25' E 029°05'0 0.0
2014-Oct-20 23:31N 40°25' E 029°05'0 0.0
2014-Oct-20 22:25N 40°25' E 029°05'0 0.0
2014-Oct-20 21:31N 40°25' E 029°05'0 0.0
2014-Oct-20 20:18N 40°25' E 029°05'0 0.0
2014-Oct-20 19:30N 40°25' E 029°05'0 0.0
2014-Oct-20 18:24N 40°25' E 029°05'0 0.0
2014-Oct-20 17:29N 40°25' E 029°05'0 0.1
2014-Oct-20 16:31N 40°25' E 029°05'0 0.1
2014-Oct-20 15:31N 40°25' E 029°05'0 0.0
2014-Oct-20 14:28N 40°25' E 029°05'0 0.0
2014-Oct-20 13:33N 40°25' E 029°05'0 0.0
2014-Oct-20 12:27N 40°25' E 029°05'0 0.0
2014-Oct-20 11:29N 40°25' E 029°05'0 0.0
2014-Oct-20 10:29N 40°25' E 029°05'1 0.6
2014-Oct-20 09:33N 40°25' E 029°05'4 0.6
2014-Oct-20 03:33N 40°26' E 028°60'10 9.5
2014-Oct-20 02:33N 40°27' E 028°47'260 7.6
2014-Oct-18 16:24N 37°58' E 024°13'1310.9
2014-Oct-18 15:13N 38°10' E 024°07'5 0.2
2014-Oct-17 09:25N 38°05' E 024°08'1410.0
2014-Oct-17 08:04N 37°56' E 024°22'810.3
2014-Oct-17 07:19N 37°55' E 024°31'4110.8
2014-Oct-17 03:31N 38°17' E 025°15'1111.1
2014-Oct-17 02:33N 38°23' E 025°26'1110.9
2014-Oct-17 01:33N 38°30' E 025°38'  
Track history (hours):
 
Tides and Currents Weather Stations Pressure Air Temp Water Temp Dewpoint Dewpoint Depression Visibility Wind Speed Wind Dir Waves Ship Positions

Beltdiep

Last reported at 2014-Oct-21 21:34 UTC. Time now 2014-Oct-22 12:24 UTC.
Position N 40°59' E 028°60'.

Length 107 m; draft 3.2 m.

Type: Ship. MMSI: 246671000.

Date/timePositionNaut miles runAvg speedWind from/ knotsBaromVisibWave heightAir tempDewpointWater temp
2014-Oct-21 21:34N 40°59' E 028°60'7 6.4
2014-Oct-21 20:31N 40°53' E 028°56'6 6.3
2014-Oct-21 19:33N 40°47' E 028°52'2 1.9
2014-Oct-21 18:34N 40°46' E 028°53'1 0.8
2014-Oct-21 17:33N 40°45' E 028°52'1 0.6
2014-Oct-21 16:33N 40°45' E 028°52'0 0.4
2014-Oct-21 15:33N 40°45' E 028°52'1 0.9
2014-Oct-21 14:33N 40°44' E 028°51'0 0.4
2014-Oct-21 13:33N 40°44' E 028°51'7 7.5
2014-Oct-21 12:34N 40°37' E 028°47'17 8.6
2014-Oct-21 10:33N 40°25' E 029°04'1 0.5
2014-Oct-21 09:19N 40°25' E 029°05'0 0.0
2014-Oct-21 08:13N 40°25' E 029°05'0 0.0
2014-Oct-21 07:18N 40°25' E 029°05'0 0.0
2014-Oct-21 06:30N 40°25' E 029°05'0 0.0
2014-Oct-21 04:29N 40°25' E 029°05'0 0.0
2014-Oct-21 03:29N 40°25' E 029°05'0 0.0
2014-Oct-21 02:32N 40°25' E 029°05'0 0.0
2014-Oct-21 01:14N 40°25' E 029°05'0 0.0
2014-Oct-21 00:26N 40°25' E 029°05'0 0.0
2014-Oct-20 23:31N 40°25' E 029°05'0 0.0
2014-Oct-20 22:25N 40°25' E 029°05'0 0.0
2014-Oct-20 21:31N 40°25' E 029°05'0 0.0
2014-Oct-20 20:18N 40°25' E 029°05'0 0.0
2014-Oct-20 19:30N 40°25' E 029°05'0 0.0
2014-Oct-20 18:24N 40°25' E 029°05'0 0.0
2014-Oct-20 17:29N 40°25' E 029°05'0 0.1
2014-Oct-20 16:31N 40°25' E 029°05'0 0.1
2014-Oct-20 15:31N 40°25' E 029°05'0 0.0
2014-Oct-20 14:28N 40°25' E 029°05'0 0.0
2014-Oct-20 13:33N 40°25' E 029°05'0 0.0
2014-Oct-20 12:27N 40°25' E 029°05'0 0.0
2014-Oct-20 11:29N 40°25' E 029°05'0 0.0
2014-Oct-20 10:29N 40°25' E 029°05'1 0.6
2014-Oct-20 09:33N 40°25' E 029°05'4 0.6
2014-Oct-20 03:33N 40°26' E 028°60'10 9.5
2014-Oct-20 02:33N 40°27' E 028°47'260 7.6
2014-Oct-18 16:24N 37°58' E 024°13'1310.9
2014-Oct-18 15:13N 38°10' E 024°07'5 0.2
2014-Oct-17 09:25N 38°05' E 024°08'1410.0
2014-Oct-17 08:04N 37°56' E 024°22'810.3
2014-Oct-17 07:19N 37°55' E 024°31'4110.8
2014-Oct-17 03:31N 38°17' E 025°15'1111.1
2014-Oct-17 02:33N 38°23' E 025°26'1110.9
2014-Oct-17 01:33N 38°30' E 025°38'  

Dump ship's entire track history